createdAt,value
2018-02-05T00:01:14.420Z,1.00
2018-02-05T00:03:42.821Z,0.95
2018-02-05T00:06:11.287Z,0.97
2018-02-05T00:08:39.746Z,0.94
2018-02-05T00:11:08.173Z,0.88
2018-02-05T00:13:36.575Z,0.83
2018-02-05T00:16:05.054Z,0.93
2018-02-05T00:18:33.486Z,0.93
2018-02-05T00:21:01.890Z,0.88
2018-02-05T00:23:30.422Z,0.89
2018-02-05T00:25:58.837Z,0.88
2018-02-05T00:28:27.246Z,0.87
2018-02-05T00:30:55.684Z,0.88
2018-02-05T00:33:24.088Z,0.96
2018-02-05T00:35:52.500Z,0.99
2018-02-05T00:38:20.959Z,1.06
2018-02-05T00:40:49.363Z,1.01
2018-02-05T00:43:17.804Z,1.03
2018-02-05T00:45:46.264Z,1.04
2018-02-05T00:48:14.696Z,1.08
2018-02-05T00:50:43.131Z,1.09
2018-02-05T00:53:11.623Z,1.07
2018-02-05T00:55:40.050Z,1.15
2018-02-05T00:58:08.453Z,1.14
2018-02-05T01:00:36.911Z,1.21
2018-02-05T01:03:05.324Z,1.20
2018-02-05T01:05:33.756Z,1.23
2018-02-05T01:08:02.194Z,1.27
2018-02-05T01:10:30.580Z,1.27
2018-02-05T01:12:58.992Z,1.27
2018-02-05T01:15:27.460Z,1.30
2018-02-05T01:17:55.858Z,1.23
2018-02-05T01:20:24.267Z,1.27
2018-02-05T01:22:52.956Z,1.20
2018-02-05T01:25:21.419Z,1.20
2018-02-05T01:27:49.831Z,1.22
2018-02-05T01:30:18.278Z,1.23
2018-02-05T01:32:46.693Z,1.37
2018-02-05T01:35:15.100Z,1.29
2018-02-05T01:37:43.553Z,1.18
2018-02-05T01:40:11.974Z,1.21
2018-02-05T01:42:40.373Z,1.15
2018-02-05T01:45:08.853Z,1.13
2018-02-05T01:47:37.261Z,1.11
2018-02-05T01:50:05.667Z,1.15
2018-02-05T01:52:34.145Z,1.12
2018-02-05T01:55:02.545Z,1.19
2018-02-05T01:57:30.959Z,1.18
2018-02-05T01:59:59.470Z,1.19
2018-02-05T02:02:27.874Z,1.12
2018-02-05T02:04:56.278Z,1.10
2018-02-05T02:07:24.719Z,1.07
2018-02-05T02:09:53.118Z,1.04
2018-02-05T02:12:21.517Z,1.04
2018-02-05T02:14:49.983Z,1.00
2018-02-05T02:17:18.474Z,0.98
2018-02-05T02:19:46.940Z,0.99
2018-02-05T02:22:15.437Z,0.97
2018-02-05T02:24:43.857Z,1.08
2018-02-05T02:27:12.261Z,1.05
2018-02-05T02:29:40.760Z,1.10
2018-02-05T02:32:09.187Z,1.19
2018-02-05T02:34:37.620Z,1.15
2018-02-05T02:37:06.095Z,1.12
2018-02-05T02:39:34.511Z,1.14
2018-02-05T02:42:02.929Z,1.10
2018-02-05T02:44:31.380Z,1.11
2018-02-05T02:46:59.826Z,1.13
2018-02-05T02:49:28.240Z,1.17
2018-02-05T02:51:56.685Z,1.23
2018-02-05T02:54:25.082Z,1.29
2018-02-05T02:56:53.517Z,1.30
2018-02-05T02:59:21.969Z,1.30
2018-02-05T03:01:50.379Z,1.32
2018-02-05T03:04:18.808Z,1.35
2018-02-05T03:06:47.280Z,1.41
2018-02-05T03:09:15.704Z,1.35
2018-02-05T03:11:44.121Z,1.39
2018-02-05T03:14:12.741Z,1.41
2018-02-05T03:16:41.170Z,1.33
2018-02-05T03:19:09.586Z,1.29
2018-02-05T03:21:38.077Z,1.28
2018-02-05T03:24:06.490Z,1.34
2018-02-05T03:26:34.909Z,1.33
2018-02-05T03:29:03.392Z,1.31
2018-02-05T03:31:31.807Z,1.33
2018-02-05T03:34:00.213Z,1.33
2018-02-05T03:36:28.653Z,1.28
2018-02-05T03:38:57.067Z,1.27
2018-02-05T03:41:25.521Z,1.20
2018-02-05T03:43:53.978Z,1.22
2018-02-05T03:46:22.406Z,1.28
2018-02-05T03:48:50.811Z,1.26
2018-02-05T03:51:19.284Z,1.37
2018-02-05T03:53:47.689Z,1.32
2018-02-05T03:56:16.102Z,1.41
2018-02-05T03:58:44.558Z,1.40
2018-02-05T04:01:12.953Z,1.41
2018-02-05T04:03:41.357Z,1.36
2018-02-05T04:06:09.837Z,1.34
2018-02-05T04:08:38.274Z,1.37
2018-02-05T04:11:06.699Z,1.32
2018-02-05T04:13:35.200Z,1.31
2018-02-05T04:16:03.612Z,1.27
2018-02-05T04:18:32.050Z,1.31
2018-02-05T04:21:00.532Z,1.36
2018-02-05T04:23:28.961Z,1.32
2018-02-05T04:25:57.372Z,1.39
2018-02-05T04:28:26.087Z,1.43
2018-02-05T04:30:54.501Z,1.34
2018-02-05T04:33:22.940Z,1.31
2018-02-05T04:35:51.405Z,1.35
2018-02-05T04:38:19.835Z,1.36
2018-02-05T04:40:48.242Z,1.25
2018-02-05T04:43:16.703Z,1.33
2018-02-05T04:45:45.120Z,1.27
2018-02-05T04:48:13.538Z,1.26
2018-02-05T04:50:42.001Z,1.24
2018-02-05T04:53:10.403Z,1.26
2018-02-05T04:55:38.807Z,1.20
2018-02-05T04:58:07.291Z,1.19
2018-02-05T05:00:35.716Z,1.24
2018-02-05T05:03:04.131Z,1.26
2018-02-05T05:05:32.593Z,1.22
2018-02-05T05:08:01.005Z,1.14
2018-02-05T05:10:29.433Z,1.11
2018-02-05T05:12:57.905Z,1.11
2018-02-05T05:15:26.326Z,1.13
2018-02-05T05:17:54.735Z,1.12
2018-02-05T05:20:23.216Z,1.14
2018-02-05T05:22:51.645Z,1.14
2018-02-05T05:25:20.077Z,1.08
2018-02-05T05:27:48.536Z,1.09
2018-02-05T05:30:16.933Z,1.06
2018-02-05T05:32:45.321Z,1.07
2018-02-05T05:35:13.793Z,1.04
2018-02-05T05:37:42.215Z,1.09
2018-02-05T05:40:10.641Z,1.07
2018-02-05T05:42:39.105Z,1.06
2018-02-05T05:45:07.540Z,1.04
2018-02-05T05:47:35.945Z,1.03
2018-02-05T05:50:04.404Z,1.04
2018-02-05T05:52:32.808Z,1.03
2018-02-05T05:55:01.226Z,1.06
2018-02-05T05:57:29.673Z,1.04
2018-02-05T05:59:58.100Z,0.94
2018-02-05T06:02:26.537Z,0.93
2018-02-05T06:04:54.980Z,0.99
2018-02-05T06:07:23.404Z,0.98
2018-02-05T06:09:51.821Z,0.95
2018-02-05T06:12:20.306Z,0.93
2018-02-05T06:14:48.724Z,0.88
2018-02-05T06:17:17.130Z,0.89
2018-02-05T06:19:45.576Z,0.83
2018-02-05T06:22:13.981Z,0.79
2018-02-05T06:24:42.386Z,0.83
2018-02-05T06:27:10.849Z,0.81
2018-02-05T06:29:39.266Z,0.90
2018-02-05T06:32:07.670Z,0.88
2018-02-05T06:34:36.142Z,0.88
2018-02-05T06:37:04.553Z,0.85
2018-02-05T06:39:32.962Z,0.84
2018-02-05T06:42:01.398Z,0.87
2018-02-05T06:44:29.793Z,0.84
2018-02-05T06:46:58.210Z,0.78
2018-02-05T06:49:26.684Z,0.83
2018-02-05T06:52:06.802Z,0.85
2018-02-05T06:54:47.134Z,0.78
2018-02-05T06:57:15.532Z,0.78
2018-02-05T06:59:43.938Z,0.74
2018-02-05T07:02:12.421Z,0.76
2018-02-05T07:04:40.820Z,0.75
2018-02-05T07:07:09.241Z,0.76
2018-02-05T07:09:37.689Z,0.76
2018-02-05T07:12:06.095Z,0.69
2018-02-05T07:14:34.493Z,0.69
2018-02-05T07:17:02.929Z,0.65
2018-02-05T07:19:31.322Z,0.63
2018-02-05T07:21:59.744Z,0.57
2018-02-05T07:24:28.179Z,0.58
2018-02-05T07:26:56.569Z,0.59
2018-02-05T07:29:24.978Z,0.58
2018-02-05T07:31:53.460Z,0.58
2018-02-05T07:34:21.872Z,0.58
2018-02-05T07:36:50.275Z,0.57
2018-02-05T07:39:18.738Z,0.56
2018-02-05T07:41:47.129Z,0.62
2018-02-05T07:44:15.528Z,0.61
2018-02-05T07:46:43.965Z,0.68
2018-02-05T07:49:12.384Z,0.74
2018-02-05T07:51:40.774Z,0.71
2018-02-05T07:54:09.238Z,0.70
2018-02-05T07:56:37.660Z,0.72
2018-02-05T07:59:06.062Z,0.67
2018-02-05T08:01:34.497Z,0.72
2018-02-05T08:04:02.908Z,0.76
2018-02-05T08:06:31.321Z,0.72
2018-02-05T08:08:59.762Z,0.69
2018-02-05T08:11:28.171Z,0.78
2018-02-05T08:13:56.580Z,0.78
2018-02-05T08:16:25.042Z,0.73
2018-02-05T08:18:53.461Z,0.71
2018-02-05T08:21:21.849Z,0.74
2018-02-05T08:23:50.295Z,0.69
2018-02-05T08:26:18.705Z,0.70
2018-02-05T08:28:47.106Z,0.67
2018-02-05T08:31:15.572Z,0.68
2018-02-05T08:33:43.985Z,0.65
2018-02-05T08:36:12.381Z,0.67
2018-02-05T08:38:40.825Z,0.73
2018-02-05T08:41:09.436Z,0.65
2018-02-05T08:43:37.857Z,0.69
2018-02-05T08:46:06.385Z,0.72
2018-02-05T08:48:34.779Z,0.71
2018-02-05T08:51:03.175Z,0.70
2018-02-05T08:53:31.638Z,0.84
2018-02-05T08:56:00.033Z,0.86
2018-02-05T08:58:28.430Z,0.96
2018-02-05T09:00:56.897Z,1.02
2018-02-05T09:03:25.297Z,1.02
2018-02-05T09:05:53.714Z,1.13
2018-02-05T09:08:22.166Z,1.23
2018-02-05T09:10:50.567Z,1.25
2018-02-05T09:13:18.958Z,1.32
2018-02-05T09:15:47.420Z,1.36
2018-02-05T09:18:15.819Z,1.30
2018-02-05T09:20:44.232Z,1.34
2018-02-05T09:23:12.713Z,1.37
2018-02-05T09:25:41.133Z,1.35
2018-02-05T09:28:09.554Z,1.37
2018-02-05T09:30:37.992Z,1.35
2018-02-05T09:33:06.417Z,1.42
2018-02-05T09:35:34.825Z,1.47
2018-02-05T09:38:03.278Z,1.56
2018-02-05T09:40:31.687Z,1.59
2018-02-05T09:43:00.298Z,1.77
2018-02-05T09:45:28.750Z,1.90
2018-02-05T09:47:57.159Z,1.96
2018-02-05T09:50:25.547Z,2.02
2018-02-05T09:52:54.008Z,2.05
2018-02-05T09:55:22.431Z,1.91
2018-02-05T09:57:50.820Z,1.76
2018-02-05T10:00:19.270Z,1.71
2018-02-05T10:02:47.690Z,1.73
2018-02-05T10:05:16.110Z,1.76
2018-02-05T10:07:44.573Z,1.81
2018-02-05T10:10:12.971Z,1.81
2018-02-05T10:12:41.392Z,1.98
2018-02-05T10:15:09.849Z,1.69
2018-02-05T10:17:38.269Z,1.58
2018-02-05T10:20:06.665Z,1.76
2018-02-05T10:22:35.442Z,1.86
2018-02-05T10:25:03.870Z,1.98
2018-02-05T10:27:32.277Z,1.94
2018-02-05T10:30:00.753Z,1.89
2018-02-05T10:32:29.148Z,1.68
2018-02-05T10:34:57.629Z,1.63
2018-02-05T10:37:26.267Z,1.69
2018-02-05T10:39:54.729Z,1.70
2018-02-05T10:42:23.136Z,1.90
2018-02-05T10:44:51.596Z,1.85
2018-02-05T10:47:20.013Z,1.70
2018-02-05T10:49:48.428Z,1.69
2018-02-05T10:52:16.893Z,1.53
2018-02-05T10:54:46.208Z,1.49
2018-02-05T10:57:14.602Z,1.64
2018-02-05T10:59:43.076Z,1.76
2018-02-05T11:02:11.521Z,1.74
2018-02-05T11:04:39.933Z,1.56
2018-02-05T11:07:08.369Z,1.55
2018-02-05T11:09:36.780Z,1.74
2018-02-05T11:12:05.201Z,1.83
2018-02-05T11:14:33.661Z,1.64
2018-02-05T11:17:02.060Z,1.56
2018-02-05T11:19:30.468Z,1.59
2018-02-05T11:21:58.927Z,1.43
2018-02-05T11:24:27.353Z,1.47
2018-02-05T11:26:55.746Z,1.33
2018-02-05T11:29:24.272Z,1.43
2018-02-05T11:31:52.677Z,1.50
2018-02-05T11:34:21.061Z,1.50
2018-02-05T11:36:49.499Z,1.61
2018-02-05T11:39:17.913Z,1.55
2018-02-05T11:41:46.328Z,1.59
2018-02-05T11:44:14.776Z,1.63
2018-02-05T11:46:43.177Z,1.62
2018-02-05T11:49:11.588Z,1.66
2018-02-05T11:51:40.041Z,1.78
2018-02-05T11:54:08.456Z,1.81
2018-02-05T11:56:36.864Z,2.03
2018-02-05T11:59:05.320Z,2.04
2018-02-05T12:01:33.732Z,2.00
2018-02-05T12:04:02.128Z,1.97
2018-02-05T12:06:30.566Z,1.91
2018-02-05T12:08:59.221Z,1.89
2018-02-05T12:11:27.633Z,2.02
2018-02-05T12:13:56.110Z,1.92
2018-02-05T12:16:24.522Z,2.11
2018-02-05T12:18:52.909Z,2.14
2018-02-05T12:21:21.377Z,2.31
2018-02-05T12:23:49.797Z,2.47
2018-02-05T12:26:18.195Z,2.67
2018-02-05T12:28:46.659Z,2.76
2018-02-05T12:31:15.078Z,2.60
2018-02-05T12:33:43.485Z,2.59
2018-02-05T12:36:11.930Z,2.79
2018-02-05T12:38:40.317Z,3.02
2018-02-05T12:41:08.735Z,3.10
2018-02-05T12:43:37.169Z,3.29
2018-02-05T12:46:05.569Z,3.48
2018-02-05T12:48:33.969Z,3.69
2018-02-05T12:51:02.409Z,3.73
2018-02-05T12:53:30.827Z,3.68
2018-02-05T12:55:59.338Z,3.59
2018-02-05T12:58:27.812Z,3.46
2018-02-05T13:00:58.209Z,3.19
2018-02-05T13:03:40.548Z,2.91
2018-02-05T13:06:11.856Z,2.84
2018-02-05T13:08:40.328Z,2.71
2018-02-05T13:11:08.718Z,2.39
2018-02-05T13:13:37.125Z,2.37
2018-02-05T13:16:05.570Z,2.33
2018-02-05T13:18:33.992Z,2.42
2018-02-05T13:21:02.377Z,2.45
2018-02-05T13:23:30.818Z,2.41
2018-02-05T13:25:59.225Z,2.46
2018-02-05T13:28:27.649Z,2.61
2018-02-05T13:30:56.111Z,2.68
2018-02-05T13:33:24.517Z,2.77
2018-02-05T13:35:52.916Z,3.07
2018-02-05T13:38:21.362Z,3.14
2018-02-05T13:40:49.772Z,3.09
2018-02-05T13:43:18.178Z,3.13
2018-02-05T13:45:46.620Z,3.16
2018-02-05T13:48:15.046Z,3.01
2018-02-05T13:50:43.482Z,3.19
2018-02-05T13:53:12.132Z,3.08
2018-02-05T13:55:40.555Z,3.04
2018-02-05T13:58:08.969Z,3.03
2018-02-05T14:00:37.424Z,2.87
2018-02-05T14:03:05.832Z,2.84
2018-02-05T14:05:34.304Z,2.90
2018-02-05T14:08:02.737Z,3.07
2018-02-05T14:10:31.148Z,3.29
2018-02-05T14:12:59.577Z,3.34
2018-02-05T14:15:28.038Z,3.53
2018-02-05T14:17:56.434Z,3.65
2018-02-05T14:20:24.847Z,3.85
2018-02-05T14:22:53.294Z,3.89
2018-02-05T14:25:21.699Z,3.78
2018-02-05T14:27:50.086Z,3.71
2018-02-05T14:30:18.557Z,3.90
2018-02-05T14:32:46.950Z,3.67
2018-02-05T14:35:15.365Z,3.67
2018-02-05T14:37:43.834Z,3.80
2018-02-05T14:40:12.257Z,3.91
2018-02-05T14:42:40.669Z,4.10
2018-02-05T14:45:09.124Z,4.25
2018-02-05T14:47:37.552Z,4.15
2018-02-05T14:50:05.961Z,3.96
2018-02-05T14:52:34.402Z,3.73
2018-02-05T14:55:02.793Z,3.97
2018-02-05T14:57:31.189Z,3.72
2018-02-05T14:59:59.652Z,3.42
2018-02-05T15:02:28.052Z,3.22
2018-02-05T15:04:56.451Z,2.91
2018-02-05T15:07:24.895Z,2.75
2018-02-05T15:09:53.310Z,2.64
2018-02-05T15:12:21.710Z,2.49
2018-02-05T15:14:50.146Z,2.39
2018-02-05T15:17:18.550Z,2.31
2018-02-05T15:19:46.950Z,2.56
2018-02-05T15:22:15.391Z,2.60
2018-02-05T15:24:43.797Z,2.52
2018-02-05T15:27:12.217Z,2.61
2018-02-05T15:29:40.705Z,2.66
2018-02-05T15:32:09.105Z,2.72
2018-02-05T15:34:37.513Z,2.92
2018-02-05T15:37:05.972Z,2.97
2018-02-05T15:39:34.383Z,2.90
2018-02-05T15:42:02.805Z,2.80
2018-02-05T15:44:31.420Z,2.55
2018-02-05T15:46:59.831Z,2.41
2018-02-05T15:49:28.248Z,2.37
2018-02-05T15:51:56.690Z,2.28
2018-02-05T15:54:25.083Z,2.25
2018-02-05T15:56:53.520Z,2.21
2018-02-05T15:59:22.006Z,2.12
2018-02-05T16:01:50.403Z,2.02
2018-02-05T16:04:18.823Z,1.95
2018-02-05T16:06:47.257Z,1.95
2018-02-05T16:09:15.655Z,1.95
2018-02-05T16:11:44.061Z,1.94
2018-02-05T16:14:12.525Z,1.85
2018-02-05T16:16:40.943Z,1.85
2018-02-05T16:19:09.345Z,1.73
2018-02-05T16:21:37.796Z,1.66
2018-02-05T16:24:06.213Z,1.65
2018-02-05T16:26:34.624Z,1.63
2018-02-05T16:29:03.058Z,1.63
2018-02-05T16:31:31.449Z,1.58
2018-02-05T16:33:59.835Z,1.60
2018-02-05T16:36:28.278Z,1.55
2018-02-05T16:38:56.688Z,1.59
2018-02-05T16:41:25.080Z,1.63
2018-02-05T16:43:53.514Z,1.63
2018-02-05T16:46:21.918Z,1.69
2018-02-05T16:48:50.389Z,1.52
2018-02-05T16:51:18.833Z,1.55
2018-02-05T16:53:47.233Z,1.46
2018-02-05T16:56:15.626Z,1.48
2018-02-05T16:58:44.097Z,1.37
2018-02-05T17:01:12.505Z,1.32
2018-02-05T17:03:40.917Z,1.24
2018-02-05T17:06:09.372Z,1.19
2018-02-05T17:08:37.793Z,1.12
2018-02-05T17:11:06.177Z,1.06
2018-02-05T17:13:34.644Z,1.05
2018-02-05T17:16:03.057Z,1.06
2018-02-05T17:18:31.445Z,1.08
2018-02-05T17:20:59.907Z,1.13
2018-02-05T17:23:28.318Z,1.15
2018-02-05T17:25:56.724Z,1.15
2018-02-05T17:28:25.180Z,1.18
2018-02-05T17:30:53.589Z,1.14
2018-02-05T17:33:21.981Z,1.19
2018-02-05T17:35:50.412Z,1.15
2018-02-05T17:38:18.830Z,1.10
2018-02-05T17:40:47.251Z,0.94
2018-02-05T17:43:15.686Z,0.86
2018-02-05T17:45:44.103Z,0.85
2018-02-05T17:48:12.491Z,0.79
2018-02-05T17:50:40.953Z,0.78
2018-02-05T17:53:09.394Z,0.77
2018-02-05T17:55:37.797Z,0.76
2018-02-05T17:58:06.326Z,0.80
2018-02-05T18:00:34.837Z,0.79
2018-02-05T18:03:03.277Z,0.72
2018-02-05T18:05:31.730Z,0.71
2018-02-05T18:08:00.124Z,0.75
2018-02-05T18:10:28.523Z,0.76
2018-02-05T18:12:56.953Z,0.74
2018-02-05T18:15:25.345Z,0.71
2018-02-05T18:17:53.741Z,0.79
2018-02-05T18:20:22.191Z,0.80
2018-02-05T18:22:50.605Z,0.68
2018-02-05T18:25:19.009Z,0.73
2018-02-05T18:27:47.461Z,0.62
2018-02-05T18:30:15.876Z,0.68
2018-02-05T18:32:44.269Z,0.71
2018-02-05T18:35:13.313Z,0.61
2018-02-05T18:37:41.713Z,0.62
2018-02-05T18:40:10.190Z,0.64
2018-02-05T18:42:38.626Z,0.60
2018-02-05T18:45:07.026Z,0.54
2018-02-05T18:47:35.425Z,0.59
2018-02-05T18:50:03.911Z,0.58
2018-02-05T18:52:32.353Z,0.52
2018-02-05T18:55:00.770Z,0.50
2018-02-05T18:57:29.275Z,0.47
2018-02-05T18:59:57.711Z,0.45
2018-02-05T19:02:26.120Z,0.44
2018-02-05T19:04:54.693Z,0.46
2018-02-05T19:07:23.087Z,0.42
2018-02-05T19:09:51.483Z,0.40
2018-02-05T19:12:19.925Z,0.41
2018-02-05T19:14:48.317Z,0.45
2018-02-05T19:17:16.731Z,0.46
2018-02-05T19:19:45.185Z,0.44
2018-02-05T19:22:13.606Z,0.39
2018-02-05T19:24:42.013Z,0.45
2018-02-05T19:27:10.465Z,0.41
2018-02-05T19:29:38.852Z,0.42
2018-02-05T19:32:07.250Z,0.42
2018-02-05T19:34:35.712Z,0.37
2018-02-05T19:37:04.134Z,0.33
2018-02-05T19:39:32.544Z,0.34
2018-02-05T19:42:01.000Z,0.33
2018-02-05T19:44:29.452Z,0.35
2018-02-05T19:46:57.861Z,0.29
2018-02-05T19:49:26.293Z,0.22
2018-02-05T19:51:54.766Z,0.14
2018-02-05T19:54:23.161Z,0.09
2018-02-05T19:56:51.597Z,0.05
2018-02-05T19:59:19.979Z,0.08
2018-02-05T20:01:48.367Z,0.00
2018-02-05T20:04:16.816Z,-0.01
2018-02-05T20:06:45.216Z,0.01
2018-02-05T20:09:13.598Z,0.07
2018-02-05T20:11:42.074Z,0.07
2018-02-05T20:14:10.457Z,0.07
2018-02-05T20:16:38.868Z,0.04
2018-02-05T20:19:07.305Z,0.06
2018-02-05T20:21:35.706Z,0.04
2018-02-05T20:24:04.116Z,0.04
2018-02-05T20:26:32.558Z,0.01
2018-02-05T20:29:00.949Z,0.03
2018-02-05T20:31:29.354Z,0.02
2018-02-05T20:33:57.940Z,0.00
2018-02-05T20:36:26.348Z,0.02
2018-02-05T20:38:54.757Z,-0.03
2018-02-05T20:41:23.212Z,-0.03
2018-02-05T20:43:51.606Z,0.02
2018-02-05T20:46:20.013Z,0.02
2018-02-05T20:48:48.460Z,0.02
2018-02-05T20:51:16.878Z,-0.01
2018-02-05T20:53:45.292Z,-0.01
2018-02-05T20:56:13.772Z,0.02
2018-02-05T20:58:42.207Z,0.01
2018-02-05T21:01:10.627Z,0.00
2018-02-05T21:03:39.072Z,0.02
2018-02-05T21:06:07.464Z,0.00
2018-02-05T21:08:35.870Z,0.03
2018-02-05T21:11:04.317Z,-0.04
2018-02-05T21:13:32.710Z,-0.07
2018-02-05T21:16:01.116Z,-0.04
2018-02-05T21:18:29.548Z,-0.08
2018-02-05T21:20:57.961Z,-0.08
2018-02-05T21:23:26.348Z,-0.11
2018-02-05T21:25:54.828Z,-0.08
2018-02-05T21:28:23.221Z,-0.10
2018-02-05T21:30:51.624Z,-0.11
2018-02-05T21:33:20.097Z,-0.11
2018-02-05T21:35:48.484Z,-0.14
2018-02-05T21:38:16.898Z,-0.15
2018-02-05T21:40:45.345Z,-0.18
2018-02-05T21:43:13.762Z,-0.22
2018-02-05T21:45:42.166Z,-0.21
2018-02-05T21:48:10.625Z,-0.20
2018-02-05T21:50:39.013Z,-0.20
2018-02-05T21:53:07.401Z,-0.29
2018-02-05T21:55:35.849Z,-0.31
2018-02-05T21:58:04.265Z,-0.29
2018-02-05T22:00:32.677Z,-0.31
2018-02-05T22:03:01.133Z,-0.27
2018-02-05T22:05:29.520Z,-0.30
2018-02-05T22:07:57.959Z,-0.28
2018-02-05T22:10:26.404Z,-0.29
2018-02-05T22:12:54.819Z,-0.31
2018-02-05T22:15:23.241Z,-0.34
2018-02-05T22:17:51.681Z,-0.42
2018-02-05T22:20:20.086Z,-0.41
2018-02-05T22:22:48.485Z,-0.39
2018-02-05T22:25:16.941Z,-0.40
2018-02-05T22:27:45.351Z,-0.41
2018-02-05T22:30:13.768Z,-0.44
2018-02-05T22:32:42.916Z,-0.51
2018-02-05T22:35:11.342Z,-0.59
2018-02-05T22:37:39.743Z,-0.59
2018-02-05T22:40:08.188Z,-0.61
2018-02-05T22:42:36.600Z,-0.66
2018-02-05T22:45:05.013Z,-0.62
2018-02-05T22:47:33.461Z,-0.73
2018-02-05T22:50:01.866Z,-0.81
2018-02-05T22:52:30.266Z,-0.73
2018-02-05T22:54:58.713Z,-0.74
2018-02-05T22:57:27.116Z,-0.79
2018-02-05T22:59:55.557Z,-0.87
2018-02-05T23:02:23.981Z,-0.91
2018-02-05T23:04:52.392Z,-0.94
2018-02-05T23:07:20.781Z,-0.97
2018-02-05T23:09:49.228Z,-0.96
2018-02-05T23:12:17.621Z,-0.96
2018-02-05T23:14:46.034Z,-1.01
2018-02-05T23:17:14.489Z,-0.98
2018-02-05T23:19:42.893Z,-1.09
2018-02-05T23:22:11.297Z,-1.08
2018-02-05T23:24:39.741Z,-1.07
2018-02-05T23:27:08.133Z,-1.10
2018-02-05T23:29:36.518Z,-1.20
2018-02-05T23:32:04.938Z,-1.20
2018-02-05T23:34:33.318Z,-1.21
2018-02-05T23:37:01.713Z,-1.22
2018-02-05T23:39:30.346Z,-1.29
2018-02-05T23:41:58.728Z,-1.28
2018-02-05T23:44:27.132Z,-1.28
2018-02-05T23:46:55.597Z,-1.31
2018-02-05T23:49:23.989Z,-1.35
2018-02-05T23:51:52.393Z,-1.32
2018-02-05T23:54:20.821Z,-1.32
2018-02-05T23:56:49.208Z,-1.43
2018-02-05T23:59:17.592Z,-1.39
